createdAt,value
2018-10-21T00:00:35.524Z,34.13
2018-10-21T00:03:03.167Z,34.43
2018-10-21T00:05:30.731Z,37.10
2018-10-21T00:07:58.167Z,39.10
2018-10-21T00:10:25.759Z,39.87
2018-10-21T00:12:53.204Z,41.10
2018-10-21T00:15:20.714Z,40.53
2018-10-21T00:17:48.470Z,35.77
2018-10-21T00:20:16.043Z,35.43
2018-10-21T00:22:43.494Z,38.10
2018-10-21T00:25:11.616Z,36.77
2018-10-21T00:27:39.095Z,37.43
2018-10-21T00:30:06.824Z,37.63
2018-10-21T00:32:40.126Z,38.40
2018-10-21T00:35:08.097Z,37.87
2018-10-21T00:37:35.608Z,37.17
2018-10-21T00:40:03.387Z,34.70
2018-10-21T00:42:30.863Z,38.17
2018-10-21T00:44:58.492Z,35.63
2018-10-21T00:47:26.496Z,34.40
2018-10-21T00:49:53.936Z,41.03
2018-10-21T00:52:21.387Z,37.60
2018-10-21T00:54:48.931Z,40.07
2018-10-21T00:57:16.456Z,41.00
2018-10-21T00:59:44.015Z,41.67
2018-10-21T01:02:11.629Z,40.67
2018-10-21T01:04:39.112Z,41.43
2018-10-21T01:07:06.632Z,41.43
2018-10-21T01:09:34.124Z,39.20
2018-10-21T01:12:01.577Z,41.50
2018-10-21T01:14:29.096Z,38.47
2018-10-21T01:16:56.580Z,39.53
2018-10-21T01:19:24.056Z,38.47
2018-10-21T01:21:51.552Z,41.47
2018-10-21T01:24:19.037Z,40.90
2018-10-21T01:26:46.516Z,36.37
2018-10-21T01:29:14.043Z,41.10
2018-10-21T01:31:41.556Z,42.60
2018-10-21T01:34:09.008Z,39.50
2018-10-21T01:36:36.573Z,38.50
2018-10-21T01:39:07.718Z,42.40
2018-10-21T01:41:35.207Z,43.50
2018-10-21T01:44:02.731Z,41.07
2018-10-21T01:46:30.175Z,44.57
2018-10-21T01:48:57.697Z,46.87
2018-10-21T01:51:25.147Z,44.07
2018-10-21T01:53:52.704Z,43.70
2018-10-21T01:56:20.155Z,45.30
2018-10-21T01:58:47.697Z,47.97
2018-10-21T02:01:43.949Z,42.87
2018-10-21T02:04:11.672Z,42.20
2018-10-21T02:06:39.215Z,40.10
2018-10-21T02:09:06.742Z,45.17
2018-10-21T02:11:34.263Z,45.80
2018-10-21T02:14:01.828Z,41.30
2018-10-21T02:16:29.285Z,36.93
2018-10-21T02:18:56.778Z,47.60
2018-10-21T02:21:24.223Z,48.47
2018-10-21T02:23:51.715Z,44.30
2018-10-21T02:26:19.381Z,43.93
2018-10-21T02:28:46.833Z,42.80
2018-10-21T02:31:14.383Z,40.43
2018-10-21T02:33:42.212Z,46.47
2018-10-21T02:36:09.566Z,40.57
2018-10-21T02:38:37.021Z,43.53
2018-10-21T02:41:40.768Z,45.43
2018-10-21T02:44:11.471Z,48.47
2018-10-21T02:46:40.400Z,46.47
2018-10-21T02:49:08.739Z,50.33
2018-10-21T02:51:36.302Z,42.73
2018-10-21T02:54:05.032Z,45.50
2018-10-21T02:56:32.569Z,45.10
2018-10-21T02:59:00.102Z,46.20
2018-10-21T03:01:27.658Z,49.77
2018-10-21T03:03:55.186Z,45.40
2018-10-21T03:06:22.847Z,46.43
2018-10-21T03:08:50.359Z,43.30
2018-10-21T03:11:17.999Z,45.60
2018-10-21T03:13:45.598Z,47.43
2018-10-21T03:16:13.146Z,46.77
2018-10-21T03:18:40.624Z,50.60
2018-10-21T03:21:08.395Z,49.40
2018-10-21T03:23:36.013Z,49.20
2018-10-21T03:26:03.682Z,49.67
2018-10-21T03:28:31.601Z,46.57
2018-10-21T03:30:59.613Z,45.03
2018-10-21T03:33:27.475Z,47.70
2018-10-21T03:35:54.719Z,49.27
2018-10-21T03:38:22.241Z,45.27
2018-10-21T03:40:49.799Z,48.67
2018-10-21T03:43:17.316Z,48.60
2018-10-21T03:45:44.848Z,46.97
2018-10-21T03:48:12.473Z,46.87
2018-10-21T03:50:40.102Z,45.30
2018-10-21T03:53:07.692Z,43.50
2018-10-21T03:55:36.655Z,47.50
2018-10-21T03:58:04.944Z,50.57
2018-10-21T04:00:32.526Z,36.60
2018-10-21T04:03:00.592Z,39.60
2018-10-21T04:05:28.067Z,43.93
2018-10-21T04:07:55.640Z,42.43
2018-10-21T04:10:23.100Z,40.37
2018-10-21T04:12:50.694Z,39.40
2018-10-21T04:15:18.204Z,42.03
2018-10-21T04:17:45.700Z,40.20
2018-10-21T04:20:13.268Z,43.93
2018-10-21T04:22:47.343Z,44.03
2018-10-21T04:25:15.042Z,44.30
2018-10-21T04:27:42.608Z,45.90
2018-10-21T04:30:11.152Z,44.90
2018-10-21T04:32:42.136Z,42.30
2018-10-21T04:35:09.644Z,43.50
2018-10-21T04:38:50.331Z,45.00
2018-10-21T04:41:17.821Z,45.13
2018-10-21T04:43:45.455Z,49.43
2018-10-21T04:46:13.101Z,50.27
2018-10-21T04:48:40.531Z,47.80
2018-10-21T04:51:08.025Z,44.30
2018-10-21T04:53:35.618Z,47.57
2018-10-21T04:56:03.184Z,49.77
2018-10-21T04:58:30.647Z,47.60
2018-10-21T05:00:58.213Z,50.53
2018-10-21T05:03:25.784Z,50.13
2018-10-21T05:05:53.363Z,49.80
2018-10-21T05:08:20.989Z,50.40
2018-10-21T05:10:48.487Z,50.37
2018-10-21T05:13:16.015Z,40.43
2018-10-21T05:15:43.565Z,44.07
2018-10-21T05:18:11.027Z,42.93
2018-10-21T05:20:38.584Z,48.73
2018-10-21T05:23:06.100Z,46.50
2018-10-21T05:25:33.582Z,51.63
2018-10-21T05:28:01.157Z,47.93
2018-10-21T05:30:28.659Z,49.20
2018-10-21T05:32:56.123Z,43.77
2018-10-21T05:35:23.628Z,51.63
2018-10-21T05:37:51.149Z,45.17
2018-10-21T05:40:20.083Z,48.07
2018-10-21T05:42:48.085Z,41.93
2018-10-21T05:45:15.579Z,47.40
2018-10-21T05:47:43.140Z,48.07
2018-10-21T05:50:11.720Z,44.60
2018-10-21T05:52:39.618Z,53.80
2018-10-21T05:55:07.401Z,51.53
2018-10-21T05:57:34.852Z,49.00
2018-10-21T06:00:03.013Z,52.20
2018-10-21T06:02:30.677Z,50.33
2018-10-21T06:04:58.199Z,48.33
2018-10-21T06:07:25.732Z,50.17
2018-10-21T06:09:53.283Z,50.90
2018-10-21T06:12:20.808Z,50.23
2018-10-21T06:14:49.387Z,49.03
2018-10-21T06:17:20.395Z,50.37
2018-10-21T06:19:51.798Z,43.20
2018-10-21T06:22:19.586Z,49.33
2018-10-21T06:24:47.109Z,47.53
2018-10-21T06:27:14.784Z,50.10
2018-10-21T06:29:42.330Z,51.27
2018-10-21T06:32:09.910Z,47.43
2018-10-21T06:34:37.548Z,50.33
2018-10-21T06:37:05.397Z,51.07
2018-10-21T06:39:32.941Z,51.77
2018-10-21T06:42:00.480Z,50.23
2018-10-21T06:44:27.972Z,51.50
2018-10-21T06:46:55.520Z,48.97
2018-10-21T06:49:23.016Z,51.03
2018-10-21T06:51:50.708Z,47.97
2018-10-21T06:54:18.265Z,52.43
2018-10-21T06:56:45.871Z,52.97
2018-10-21T06:59:13.289Z,51.00
2018-10-21T07:01:40.802Z,54.23
2018-10-21T07:04:08.300Z,36.20
2018-10-21T07:06:35.857Z,49.73
2018-10-21T07:09:05.222Z,42.00
2018-10-21T07:11:32.744Z,49.77
2018-10-21T07:14:00.208Z,46.20
2018-10-21T07:16:27.731Z,37.43
2018-10-21T07:18:55.124Z,47.87
2018-10-21T07:21:22.697Z,53.00
2018-10-21T07:23:50.358Z,50.97
2018-10-21T07:26:17.971Z,50.63
2018-10-21T07:28:45.579Z,35.30
2018-10-21T07:31:13.148Z,42.83
2018-10-21T07:33:40.788Z,48.73
2018-10-21T07:36:08.504Z,47.03
2018-10-21T07:38:36.005Z,48.60
2018-10-21T07:41:03.636Z,46.47
2018-10-21T07:43:31.266Z,50.97
2018-10-21T07:45:58.855Z,46.10
2018-10-21T07:48:26.302Z,50.97
2018-10-21T07:50:53.832Z,50.67
2018-10-21T07:53:21.428Z,48.10
2018-10-21T07:55:49.618Z,46.03
2018-10-21T07:58:17.165Z,50.87
2018-10-21T08:00:44.720Z,49.47
2018-10-21T08:03:12.298Z,53.07
2018-10-21T08:05:51.452Z,50.33
2018-10-21T08:08:20.076Z,50.70
2018-10-21T08:10:47.554Z,48.20
2018-10-21T08:13:17.298Z,51.63
2018-10-21T08:15:45.113Z,51.67
2018-10-21T08:18:13.402Z,49.90
2018-10-21T08:20:42.558Z,48.07
2018-10-21T08:23:11.403Z,45.17
2018-10-21T08:25:39.172Z,48.27
2018-10-21T08:28:06.769Z,40.00
2018-10-21T08:30:34.604Z,49.97
2018-10-21T08:33:02.749Z,49.70
2018-10-21T08:35:30.296Z,48.03
2018-10-21T08:37:57.731Z,50.50
2018-10-21T08:40:25.244Z,46.30
2018-10-21T08:42:52.891Z,44.57
2018-10-21T08:45:20.485Z,45.90
2018-10-21T08:47:47.924Z,47.57
2018-10-21T08:50:15.487Z,44.70
2018-10-21T08:52:43.043Z,46.40
2018-10-21T08:55:11.364Z,49.50
2018-10-21T08:57:39.290Z,46.50
2018-10-21T09:00:10.136Z,47.77
2018-10-21T09:02:37.755Z,45.07
2018-10-21T09:05:07.289Z,44.13
2018-10-21T09:07:34.719Z,44.77
2018-10-21T09:10:02.277Z,45.13
2018-10-21T09:12:29.727Z,46.90
2018-10-21T09:14:57.272Z,42.43
2018-10-21T09:17:24.801Z,46.43
2018-10-21T09:19:52.355Z,41.77
2018-10-21T09:22:19.856Z,41.90
2018-10-21T09:24:47.233Z,39.37
2018-10-21T09:27:14.740Z,42.53
2018-10-21T09:29:42.263Z,44.10
2018-10-21T09:32:09.766Z,43.13
2018-10-21T09:34:37.209Z,42.17
2018-10-21T09:37:05.095Z,41.30
2018-10-21T09:39:32.639Z,40.57
2018-10-21T09:42:00.849Z,37.93
2018-10-21T09:44:28.336Z,40.03
2018-10-21T09:46:55.792Z,40.40
2018-10-21T09:49:23.316Z,37.97
2018-10-21T09:51:50.811Z,39.13
2018-10-21T09:54:18.302Z,41.00
2018-10-21T09:56:45.905Z,38.17
2018-10-21T09:59:13.331Z,37.40
2018-10-21T10:01:46.486Z,36.53
2018-10-21T10:04:13.995Z,36.80
2018-10-21T10:06:41.684Z,38.37
2018-10-21T10:09:11.262Z,37.67
2018-10-21T10:11:38.752Z,36.93
2018-10-21T10:14:07.284Z,36.33
2018-10-21T10:16:34.739Z,33.40
2018-10-21T10:19:02.327Z,33.70
2018-10-21T10:21:29.803Z,34.70
2018-10-21T10:23:57.350Z,33.60
2018-10-21T10:26:24.943Z,33.50
2018-10-21T10:28:52.430Z,34.37
2018-10-21T10:31:19.923Z,33.17
2018-10-21T10:33:47.466Z,32.07
2018-10-21T10:36:15.097Z,31.50
2018-10-21T10:38:42.568Z,31.80
2018-10-21T10:41:10.333Z,31.53
2018-10-21T10:43:38.138Z,33.10
2018-10-21T10:46:05.749Z,30.90
2018-10-21T10:48:33.127Z,29.33
2018-10-21T10:51:00.598Z,29.73
2018-10-21T10:53:28.351Z,27.37
2018-10-21T10:55:56.005Z,29.97
2018-10-21T10:58:23.469Z,29.30
2018-10-21T11:00:51.028Z,26.27
2018-10-21T11:03:18.499Z,28.53
2018-10-21T11:05:46.067Z,24.43
2018-10-21T11:08:13.561Z,24.80
2018-10-21T11:10:41.175Z,24.87
2018-10-21T11:13:08.902Z,23.80
2018-10-21T11:15:36.331Z,23.90
2018-10-21T11:18:04.090Z,23.23
2018-10-21T11:20:31.798Z,21.27
2018-10-21T11:22:59.348Z,22.63
2018-10-21T11:25:26.831Z,24.27
2018-10-21T11:27:54.461Z,21.27
2018-10-21T11:30:22.087Z,20.03
2018-10-21T11:32:49.576Z,17.40
2018-10-21T11:35:17.086Z,18.97
2018-10-21T11:37:44.712Z,21.37
2018-10-21T11:40:12.328Z,21.10
2018-10-21T11:42:40.001Z,18.63
2018-10-21T11:45:07.525Z,21.23
2018-10-21T11:47:35.019Z,19.27
2018-10-21T11:50:02.677Z,18.57
2018-10-21T11:52:30.521Z,18.30
2018-10-21T11:54:58.351Z,18.87
2018-10-21T11:57:25.879Z,18.03
2018-10-21T11:59:53.371Z,18.40
2018-10-21T12:02:21.200Z,18.60
2018-10-21T12:04:48.791Z,17.60
2018-10-21T12:07:16.794Z,16.77
2018-10-21T12:09:44.585Z,16.37
2018-10-21T12:12:12.430Z,17.20
2018-10-21T12:14:40.022Z,16.60
2018-10-21T12:17:07.585Z,16.97
2018-10-21T12:19:35.172Z,17.23
2018-10-21T12:22:02.940Z,18.87
2018-10-21T12:24:30.686Z,17.27
2018-10-21T12:26:58.267Z,17.13
2018-10-21T12:29:25.822Z,18.73
2018-10-21T12:31:53.346Z,16.53
2018-10-21T12:34:20.972Z,16.37
2018-10-21T12:36:48.499Z,15.60
2018-10-21T12:39:16.145Z,17.07
2018-10-21T12:41:43.895Z,17.67
2018-10-21T12:44:11.441Z,16.60
2018-10-21T12:46:39.541Z,16.70
2018-10-21T12:49:07.348Z,17.33
2018-10-21T12:51:35.279Z,19.80
2018-10-21T12:54:03.100Z,19.37
2018-10-21T12:56:30.686Z,19.37
2018-10-21T12:58:58.576Z,17.10
2018-10-21T13:01:26.371Z,14.23
2018-10-21T13:03:53.859Z,12.63
2018-10-21T13:06:21.559Z,14.07
2018-10-21T13:08:49.331Z,13.73
2018-10-21T13:11:17.074Z,13.00
2018-10-21T13:13:44.622Z,14.40
2018-10-21T13:16:12.217Z,14.70
2018-10-21T13:18:39.815Z,12.63
2018-10-21T13:21:07.517Z,12.83
2018-10-21T13:23:35.575Z,14.23
2018-10-21T13:26:03.330Z,12.77
2018-10-21T13:28:31.085Z,10.50
2018-10-21T13:30:58.967Z,11.80
2018-10-21T13:33:26.593Z,13.93
2018-10-21T13:35:54.134Z,14.27
2018-10-21T13:38:21.762Z,12.83
2018-10-21T13:40:49.351Z,13.97
2018-10-21T13:43:17.896Z,13.43
2018-10-21T13:45:45.317Z,14.13
2018-10-21T13:48:12.860Z,14.80
2018-10-21T13:50:40.400Z,16.07
2018-10-21T13:53:07.969Z,16.60
2018-10-21T13:55:35.507Z,16.90
2018-10-21T13:58:03.079Z,17.27
2018-10-21T14:00:31.733Z,16.63
2018-10-21T14:02:59.144Z,15.50
2018-10-21T14:05:26.600Z,17.23
2018-10-21T14:07:54.216Z,17.93
2018-10-21T14:10:22.088Z,17.03
2018-10-21T14:12:49.735Z,16.63
2018-10-21T14:15:17.358Z,16.50
2018-10-21T14:17:44.836Z,18.20
2018-10-21T14:20:12.570Z,17.57
2018-10-21T14:22:40.165Z,17.30
2018-10-21T14:25:07.806Z,16.10
2018-10-21T14:27:35.992Z,16.33
2018-10-21T14:30:04.825Z,16.93
2018-10-21T14:32:32.464Z,16.87
2018-10-21T14:35:00.068Z,16.60
2018-10-21T14:37:27.523Z,15.90
2018-10-21T14:39:55.092Z,16.40
2018-10-21T14:42:22.657Z,16.73
2018-10-21T14:44:50.384Z,17.27
2018-10-21T14:47:17.928Z,15.63
2018-10-21T14:49:45.421Z,15.63
2018-10-21T14:52:13.349Z,16.40
2018-10-21T14:54:40.868Z,16.67
2018-10-21T14:57:09.378Z,14.73
2018-10-21T14:59:36.864Z,15.37
2018-10-21T15:02:04.686Z,14.53
2018-10-21T15:04:32.296Z,15.10
2018-10-21T15:06:59.864Z,16.23
2018-10-21T15:09:27.821Z,18.90
2018-10-21T15:11:55.362Z,17.67
2018-10-21T15:14:23.019Z,18.00
2018-10-21T15:16:50.647Z,17.33
2018-10-21T15:19:18.150Z,17.53
2018-10-21T15:21:45.785Z,17.00
2018-10-21T15:24:13.245Z,17.33
2018-10-21T15:26:40.797Z,19.27
2018-10-21T15:29:08.706Z,19.53
2018-10-21T15:31:36.232Z,18.13
2018-10-21T15:34:04.265Z,18.07
2018-10-21T15:36:31.701Z,17.30
2018-10-21T15:38:59.231Z,19.70
2018-10-21T15:41:26.672Z,18.53
2018-10-21T15:43:54.165Z,17.87
2018-10-21T15:46:21.774Z,18.90
2018-10-21T15:48:49.442Z,18.87
2018-10-21T15:51:17.344Z,17.57
2018-10-21T15:53:44.866Z,16.53
2018-10-21T15:56:12.650Z,16.03
2018-10-21T15:58:40.404Z,16.70
2018-10-21T16:01:08.019Z,15.53
2018-10-21T16:03:35.572Z,16.40
2018-10-21T16:06:03.437Z,15.40
2018-10-21T16:08:30.980Z,16.00
2018-10-21T16:10:58.460Z,16.40
2018-10-21T16:13:25.995Z,15.40
2018-10-21T16:15:53.625Z,15.27
2018-10-21T16:18:21.056Z,17.50
2018-10-21T16:20:48.519Z,16.37
2018-10-21T16:23:16.001Z,15.50
2018-10-21T16:25:43.597Z,15.10
2018-10-21T16:28:10.985Z,16.27
2018-10-21T16:30:38.608Z,16.63
2018-10-21T16:33:06.328Z,18.17
2018-10-21T16:35:33.836Z,15.70
2018-10-21T16:38:02.082Z,15.60
2018-10-21T16:40:29.512Z,16.67
2018-10-21T16:42:57.061Z,17.20
2018-10-21T16:45:24.703Z,17.07
2018-10-21T16:47:52.183Z,16.90
2018-10-21T16:50:19.606Z,16.73
2018-10-21T16:52:47.083Z,17.60
2018-10-21T16:55:15.412Z,16.50
2018-10-21T16:57:43.127Z,17.60
2018-10-21T17:00:13.292Z,18.23
2018-10-21T17:02:41.460Z,16.80
2018-10-21T17:05:09.442Z,17.50
2018-10-21T17:07:37.072Z,18.10
2018-10-21T17:10:05.439Z,18.90
2018-10-21T17:12:32.659Z,17.33
2018-10-21T17:15:00.173Z,17.23
2018-10-21T17:17:28.009Z,18.80
2018-10-21T17:19:56.026Z,18.80
2018-10-21T17:22:23.595Z,17.37
2018-10-21T17:24:51.705Z,18.80
2018-10-21T17:27:19.523Z,19.83
2018-10-21T17:29:47.038Z,19.27
2018-10-21T17:32:14.538Z,19.70
2018-10-21T17:34:42.451Z,21.07
2018-10-21T17:37:10.146Z,20.07
2018-10-21T17:39:37.556Z,21.00
2018-10-21T17:42:05.757Z,17.87
2018-10-21T17:44:34.083Z,20.13
2018-10-21T17:47:01.798Z,19.93
2018-10-21T17:49:29.301Z,19.13
2018-10-21T17:51:56.890Z,18.80
2018-10-21T17:54:26.183Z,19.80
2018-10-21T17:56:57.398Z,20.60
2018-10-21T17:59:25.355Z,19.00
2018-10-21T18:01:53.514Z,18.93
2018-10-21T18:04:21.484Z,19.53
2018-10-21T18:06:49.181Z,19.10
2018-10-21T18:09:20.250Z,18.90
2018-10-21T18:11:47.926Z,19.63
2018-10-21T18:14:15.421Z,19.23
2018-10-21T18:16:43.654Z,19.70
2018-10-21T18:19:11.625Z,21.20
2018-10-21T18:21:39.598Z,19.67
2018-10-21T18:24:07.237Z,20.93
2018-10-21T18:26:34.819Z,21.97
2018-10-21T18:29:02.335Z,19.90
2018-10-21T18:31:29.824Z,22.17
2018-10-21T18:33:57.319Z,19.33
2018-10-21T18:36:24.809Z,21.17
2018-10-21T18:38:52.602Z,20.63
2018-10-21T18:41:20.204Z,21.03
2018-10-21T18:43:48.248Z,19.57
2018-10-21T18:46:16.219Z,20.63
2018-10-21T18:48:44.077Z,20.63
2018-10-21T18:51:12.423Z,21.00
2018-10-21T18:53:40.210Z,19.80
2018-10-21T18:56:07.663Z,21.27
2018-10-21T18:58:35.351Z,22.40
2018-10-21T19:01:03.052Z,20.97
2018-10-21T19:03:30.638Z,20.33
2018-10-21T19:05:58.384Z,21.93
2018-10-21T19:08:25.920Z,21.47
2018-10-21T19:10:54.005Z,20.63
2018-10-21T19:13:21.680Z,21.80
2018-10-21T19:15:49.039Z,22.20
2018-10-21T19:18:16.876Z,20.67
2018-10-21T19:20:44.506Z,22.23
2018-10-21T19:23:12.704Z,19.20
2018-10-21T19:25:40.432Z,21.07
2018-10-21T19:28:11.734Z,21.13
2018-10-21T19:30:39.818Z,21.80
2018-10-21T19:33:07.491Z,21.37
2018-10-21T19:35:35.195Z,20.13
2018-10-21T19:38:02.770Z,24.07
2018-10-21T19:40:30.357Z,22.33
2018-10-21T19:42:58.104Z,23.53
2018-10-21T19:45:25.806Z,23.00
2018-10-21T19:47:53.911Z,24.10
2018-10-21T19:50:22.413Z,22.67
2018-10-21T19:52:49.967Z,22.80
2018-10-21T19:55:17.567Z,23.60
2018-10-21T19:57:44.987Z,24.03
2018-10-21T20:00:14.156Z,24.70
2018-10-21T20:02:42.375Z,22.77
2018-10-21T20:05:10.036Z,24.17
2018-10-21T20:07:37.643Z,25.57
2018-10-21T20:10:06.964Z,25.90
2018-10-21T20:12:34.855Z,26.53
2018-10-21T20:15:02.374Z,25.73
2018-10-21T20:17:30.006Z,26.00
2018-10-21T20:19:57.553Z,24.23
2018-10-21T20:22:25.064Z,26.40
2018-10-21T20:24:52.617Z,24.70
2018-10-21T20:27:20.160Z,26.00
2018-10-21T20:29:47.744Z,24.63
2018-10-21T20:32:15.227Z,25.37
2018-10-21T20:34:42.943Z,27.67
2018-10-21T20:37:10.419Z,26.20
2018-10-21T20:39:38.115Z,25.67
2018-10-21T20:42:05.876Z,26.13
2018-10-21T20:44:33.631Z,25.70
2018-10-21T20:47:01.209Z,27.63
2018-10-21T20:49:28.626Z,27.77
2018-10-21T20:51:56.169Z,26.67
2018-10-21T20:54:28.209Z,26.13
2018-10-21T20:56:55.973Z,25.40
2018-10-21T20:59:23.991Z,25.73
2018-10-21T21:01:51.492Z,25.17
2018-10-21T21:04:19.193Z,24.73
2018-10-21T21:06:46.855Z,24.87
2018-10-21T21:09:14.888Z,25.57
2018-10-21T21:11:42.342Z,25.40
2018-10-21T21:14:09.872Z,24.07
2018-10-21T21:16:37.379Z,24.73
2018-10-21T21:19:05.176Z,24.57
2018-10-21T21:21:32.666Z,25.87
2018-10-21T21:24:00.345Z,24.30
2018-10-21T21:26:27.908Z,25.17
2018-10-21T21:28:55.943Z,26.13
2018-10-21T21:31:24.071Z,25.20
2018-10-21T21:33:51.609Z,25.30
2018-10-21T21:36:19.268Z,25.90
2018-10-21T21:38:46.743Z,28.70
2018-10-21T21:41:14.706Z,25.20
2018-10-21T21:43:42.121Z,26.87
2018-10-21T21:46:09.738Z,24.43
2018-10-21T21:48:37.195Z,25.90
2018-10-21T21:51:04.743Z,27.27
2018-10-21T21:53:32.346Z,26.20
2018-10-21T21:55:59.806Z,33.50
2018-10-21T21:58:27.353Z,31.67
2018-10-21T22:00:54.706Z,27.90
2018-10-21T22:03:22.166Z,25.67
2018-10-21T22:05:49.663Z,25.83
2018-10-21T22:08:17.315Z,24.13
2018-10-21T22:10:44.721Z,26.50
2018-10-21T22:13:12.219Z,27.27
2018-10-21T22:15:39.676Z,27.60
2018-10-21T22:18:07.195Z,25.57
2018-10-21T22:20:34.659Z,26.20
2018-10-21T22:23:02.393Z,25.17
2018-10-21T22:25:29.888Z,24.80
2018-10-21T22:27:57.330Z,25.03
2018-10-21T22:30:24.805Z,25.07
2018-10-21T22:32:52.210Z,24.47
2018-10-21T22:35:19.852Z,26.97
2018-10-21T22:37:47.328Z,25.20
2018-10-21T22:40:14.926Z,24.90
2018-10-21T22:42:42.227Z,25.47
2018-10-21T22:45:10.044Z,24.60
2018-10-21T22:47:37.669Z,23.90
2018-10-21T22:50:06.871Z,25.00
2018-10-21T22:52:34.351Z,22.57
2018-10-21T22:55:01.709Z,25.50
2018-10-21T22:57:29.140Z,24.87
2018-10-21T22:59:56.591Z,23.80
2018-10-21T23:02:23.936Z,23.30
2018-10-21T23:04:51.314Z,25.30
2018-10-21T23:07:18.708Z,23.17
2018-10-21T23:09:46.089Z,23.40
2018-10-21T23:12:13.884Z,23.57
2018-10-21T23:14:41.261Z,24.27
2018-10-21T23:17:08.709Z,24.90
2018-10-21T23:19:41.969Z,23.47
2018-10-21T23:22:09.515Z,22.00
2018-10-21T23:24:37.769Z,24.67
2018-10-21T23:27:05.405Z,26.33
2018-10-21T23:29:33.028Z,23.60
2018-10-21T23:32:00.437Z,24.93
2018-10-21T23:37:02.201Z,27.97
2018-10-21T23:39:29.805Z,25.40
2018-10-21T23:41:58.058Z,27.37
2018-10-21T23:44:25.379Z,25.37
2018-10-21T23:46:52.741Z,26.27
2018-10-21T23:49:20.146Z,28.23
2018-10-21T23:51:47.637Z,29.20
2018-10-21T23:54:15.812Z,28.80
2018-10-21T23:56:43.153Z,27.43
2018-10-21T23:59:11.290Z,27.60
